sensor_id;sensor_type;location;lat;lon;timestamp;P1;durP1;ratioP1;P2;durP2;ratioP2
6479;SDS011;71753;48.772;9.148;2024-03-07T00:01:40;22.30;;;10.70;;
6479;SDS011;71753;48.772;9.148;2024-03-07T00:04:07;25.67;;;11.67;;
6479;SDS011;71753;48.772;9.148;2024-03-07T00:06:33;23.73;;;11.90;;
6479;SDS011;71753;48.772;9.148;2024-03-07T00:09:00;25.80;;;12.20;;
6479;SDS011;71753;48.772;9.148;2024-03-07T00:11:27;29.07;;;12.87;;
6479;SDS011;71753;48.772;9.148;2024-03-07T00:13:55;24.40;;;12.10;;
6479;SDS011;71753;48.772;9.148;2024-03-07T00:16:22;27.47;;;11.37;;
6479;SDS011;71753;48.772;9.148;2024-03-07T00:18:50;27.43;;;12.17;;
6479;SDS011;71753;48.772;9.148;2024-03-07T00:21:17;25.37;;;11.47;;
6479;SDS011;71753;48.772;9.148;2024-03-07T00:23:43;23.43;;;12.13;;
6479;SDS011;71753;48.772;9.148;2024-03-07T00:26:10;22.47;;;11.10;;
6479;SDS011;71753;48.772;9.148;2024-03-07T00:28:36;24.83;;;11.63;;
6479;SDS011;71753;48.772;9.148;2024-03-07T00:31:04;24.03;;;11.80;;
6479;SDS011;71753;48.772;9.148;2024-03-07T00:33:32;22.93;;;11.63;;
6479;SDS011;71753;48.772;9.148;2024-03-07T00:36:00;28.27;;;13.17;;
6479;SDS011;71753;48.772;9.148;2024-03-07T00:38:27;25.77;;;12.20;;
6479;SDS011;71753;48.772;9.148;2024-03-07T00:40:53;23.50;;;11.80;;
6479;SDS011;71753;48.772;9.148;2024-03-07T00:43:20;26.63;;;12.27;;
6479;SDS011;71753;48.772;9.148;2024-03-07T00:45:46;25.17;;;11.90;;
6479;SDS011;71753;48.772;9.148;2024-03-07T00:48:15;25.87;;;12.03;;
6479;SDS011;71753;48.772;9.148;2024-03-07T00:50:41;23.03;;;11.87;;
6479;SDS011;71753;48.772;9.148;2024-03-07T00:53:10;22.37;;;11.50;;
6479;SDS011;71753;48.772;9.148;2024-03-07T00:55:36;23.93;;;11.87;;
6479;SDS011;71753;48.772;9.148;2024-03-07T00:58:03;22.60;;;11.53;;
6479;SDS011;71753;48.772;9.148;2024-03-07T01:00:30;25.97;;;12.50;;
6479;SDS011;71753;48.772;9.148;2024-03-07T01:02:57;26.10;;;12.13;;
6479;SDS011;71753;48.772;9.148;2024-03-07T01:05:23;25.17;;;11.83;;
6479;SDS011;71753;48.772;9.148;2024-03-07T01:07:50;23.83;;;13.13;;
6479;SDS011;71753;48.772;9.148;2024-03-07T01:10:19;29.13;;;13.57;;
6479;SDS011;71753;48.772;9.148;2024-03-07T01:12:46;26.87;;;12.53;;
6479;SDS011;71753;48.772;9.148;2024-03-07T01:15:15;29.43;;;12.53;;
6479;SDS011;71753;48.772;9.148;2024-03-07T01:17:41;29.27;;;12.53;;
6479;SDS011;71753;48.772;9.148;2024-03-07T01:20:10;24.93;;;11.73;;
6479;SDS011;71753;48.772;9.148;2024-03-07T01:22:37;23.50;;;11.27;;
6479;SDS011;71753;48.772;9.148;2024-03-07T01:25:03;25.53;;;13.07;;
6479;SDS011;71753;48.772;9.148;2024-03-07T01:27:32;24.63;;;12.20;;
6479;SDS011;71753;48.772;9.148;2024-03-07T01:30:00;29.83;;;12.97;;
6479;SDS011;71753;48.772;9.148;2024-03-07T01:32:28;29.73;;;13.80;;
6479;SDS011;71753;48.772;9.148;2024-03-07T01:34:55;30.53;;;13.47;;
6479;SDS011;71753;48.772;9.148;2024-03-07T01:37:22;24.20;;;12.10;;
6479;SDS011;71753;48.772;9.148;2024-03-07T01:39:48;29.87;;;12.67;;
6479;SDS011;71753;48.772;9.148;2024-03-07T01:42:15;28.87;;;13.17;;
6479;SDS011;71753;48.772;9.148;2024-03-07T01:44:43;29.87;;;12.57;;
6479;SDS011;71753;48.772;9.148;2024-03-07T01:47:10;24.53;;;12.67;;
6479;SDS011;71753;48.772;9.148;2024-03-07T01:49:37;23.40;;;11.90;;
6479;SDS011;71753;48.772;9.148;2024-03-07T01:52:04;26.53;;;13.60;;
6479;SDS011;71753;48.772;9.148;2024-03-07T01:54:31;29.63;;;13.37;;
6479;SDS011;71753;48.772;9.148;2024-03-07T01:56:58;27.87;;;11.37;;
6479;SDS011;71753;48.772;9.148;2024-03-07T01:59:26;30.97;;;13.87;;
6479;SDS011;71753;48.772;9.148;2024-03-07T02:01:56;28.10;;;12.80;;
6479;SDS011;71753;48.772;9.148;2024-03-07T02:04:23;26.63;;;13.13;;
6479;SDS011;71753;48.772;9.148;2024-03-07T02:06:50;27.23;;;12.77;;
6479;SDS011;71753;48.772;9.148;2024-03-07T02:09:18;28.47;;;13.10;;
6479;SDS011;71753;48.772;9.148;2024-03-07T02:11:46;26.90;;;12.97;;
6479;SDS011;71753;48.772;9.148;2024-03-07T02:14:13;28.13;;;13.10;;
6479;SDS011;71753;48.772;9.148;2024-03-07T02:16:40;27.93;;;13.03;;
6479;SDS011;71753;48.772;9.148;2024-03-07T02:19:08;25.63;;;12.20;;
6479;SDS011;71753;48.772;9.148;2024-03-07T02:21:40;27.20;;;13.03;;
6479;SDS011;71753;48.772;9.148;2024-03-07T02:24:06;35.23;;;15.03;;
6479;SDS011;71753;48.772;9.148;2024-03-07T02:26:33;32.43;;;14.37;;
6479;SDS011;71753;48.772;9.148;2024-03-07T02:29:00;30.50;;;14.13;;
6479;SDS011;71753;48.772;9.148;2024-03-07T02:31:28;26.60;;;13.23;;
6479;SDS011;71753;48.772;9.148;2024-03-07T02:34:00;28.27;;;13.90;;
6479;SDS011;71753;48.772;9.148;2024-03-07T02:36:27;26.27;;;12.50;;
6479;SDS011;71753;48.772;9.148;2024-03-07T02:38:55;26.10;;;13.50;;
6479;SDS011;71753;48.772;9.148;2024-03-07T02:41:21;32.47;;;14.07;;
6479;SDS011;71753;48.772;9.148;2024-03-07T02:43:49;30.60;;;13.77;;
6479;SDS011;71753;48.772;9.148;2024-03-07T02:46:16;33.70;;;14.33;;
6479;SDS011;71753;48.772;9.148;2024-03-07T02:48:43;27.20;;;13.70;;
6479;SDS011;71753;48.772;9.148;2024-03-07T02:51:10;28.10;;;13.17;;
6479;SDS011;71753;48.772;9.148;2024-03-07T02:53:37;30.63;;;13.53;;
6479;SDS011;71753;48.772;9.148;2024-03-07T02:56:05;35.23;;;14.30;;
6479;SDS011;71753;48.772;9.148;2024-03-07T02:58:34;33.67;;;14.50;;
6479;SDS011;71753;48.772;9.148;2024-03-07T03:01:01;29.87;;;14.07;;
6479;SDS011;71753;48.772;9.148;2024-03-07T03:03:29;33.53;;;13.67;;
6479;SDS011;71753;48.772;9.148;2024-03-07T03:05:57;30.57;;;14.93;;
6479;SDS011;71753;48.772;9.148;2024-03-07T03:08:24;29.43;;;14.20;;
6479;SDS011;71753;48.772;9.148;2024-03-07T03:10:52;30.97;;;13.70;;
6479;SDS011;71753;48.772;9.148;2024-03-07T03:13:20;31.97;;;14.33;;
6479;SDS011;71753;48.772;9.148;2024-03-07T03:15:47;29.17;;;13.37;;
6479;SDS011;71753;48.772;9.148;2024-03-07T03:18:14;28.40;;;13.60;;
6479;SDS011;71753;48.772;9.148;2024-03-07T03:20:41;33.30;;;14.23;;
6479;SDS011;71753;48.772;9.148;2024-03-07T03:23:08;30.07;;;12.80;;
6479;SDS011;71753;48.772;9.148;2024-03-07T03:25:38;26.83;;;13.17;;
6479;SDS011;71753;48.772;9.148;2024-03-07T03:28:05;30.10;;;14.03;;
6479;SDS011;71753;48.772;9.148;2024-03-07T03:30:36;27.27;;;12.53;;
6479;SDS011;71753;48.772;9.148;2024-03-07T03:33:03;32.57;;;14.90;;
6479;SDS011;71753;48.772;9.148;2024-03-07T03:35:30;32.53;;;14.27;;
6479;SDS011;71753;48.772;9.148;2024-03-07T03:37:57;30.27;;;13.60;;
6479;SDS011;71753;48.772;9.148;2024-03-07T03:40:24;31.90;;;14.60;;
6479;SDS011;71753;48.772;9.148;2024-03-07T03:42:50;30.53;;;13.93;;
6479;SDS011;71753;48.772;9.148;2024-03-07T03:45:17;32.83;;;14.10;;
6479;SDS011;71753;48.772;9.148;2024-03-07T03:47:46;26.90;;;13.33;;
6479;SDS011;71753;48.772;9.148;2024-03-07T03:50:13;31.03;;;14.00;;
6479;SDS011;71753;48.772;9.148;2024-03-07T03:52:40;29.97;;;14.03;;
6479;SDS011;71753;48.772;9.148;2024-03-07T03:55:07;32.13;;;14.73;;
6479;SDS011;71753;48.772;9.148;2024-03-07T03:57:36;30.03;;;14.27;;
6479;SDS011;71753;48.772;9.148;2024-03-07T04:00:04;31.40;;;14.53;;
6479;SDS011;71753;48.772;9.148;2024-03-07T04:02:37;28.80;;;14.03;;
6479;SDS011;71753;48.772;9.148;2024-03-07T04:05:06;34.17;;;15.00;;
6479;SDS011;71753;48.772;9.148;2024-03-07T04:07:35;33.30;;;14.60;;
6479;SDS011;71753;48.772;9.148;2024-03-07T04:10:02;32.30;;;14.63;;
6479;SDS011;71753;48.772;9.148;2024-03-07T04:12:32;33.20;;;14.17;;
6479;SDS011;71753;48.772;9.148;2024-03-07T04:14:58;32.27;;;15.60;;
6479;SDS011;71753;48.772;9.148;2024-03-07T04:17:26;32.50;;;15.53;;
6479;SDS011;71753;48.772;9.148;2024-03-07T04:19:52;32.83;;;15.17;;
6479;SDS011;71753;48.772;9.148;2024-03-07T04:22:20;28.63;;;13.63;;
6479;SDS011;71753;48.772;9.148;2024-03-07T04:24:48;35.77;;;14.83;;
6479;SDS011;71753;48.772;9.148;2024-03-07T04:27:19;32.83;;;15.60;;
6479;SDS011;71753;48.772;9.148;2024-03-07T04:29:46;29.97;;;14.53;;
6479;SDS011;71753;48.772;9.148;2024-03-07T04:32:14;31.73;;;14.53;;
6479;SDS011;71753;48.772;9.148;2024-03-07T04:34:42;31.20;;;15.27;;
6479;SDS011;71753;48.772;9.148;2024-03-07T04:37:09;37.97;;;16.20;;
6479;SDS011;71753;48.772;9.148;2024-03-07T04:39:37;30.17;;;13.97;;
6479;SDS011;71753;48.772;9.148;2024-03-07T04:42:04;30.27;;;14.83;;
6479;SDS011;71753;48.772;9.148;2024-03-07T04:44:32;32.53;;;15.27;;
6479;SDS011;71753;48.772;9.148;2024-03-07T04:47:00;29.77;;;14.33;;
6479;SDS011;71753;48.772;9.148;2024-03-07T04:49:29;32.30;;;14.17;;
6479;SDS011;71753;48.772;9.148;2024-03-07T04:51:58;26.30;;;13.53;;
6479;SDS011;71753;48.772;9.148;2024-03-07T04:54:26;28.67;;;13.67;;
6479;SDS011;71753;48.772;9.148;2024-03-07T04:56:56;33.63;;;14.60;;
6479;SDS011;71753;48.772;9.148;2024-03-07T04:59:22;31.70;;;13.97;;
6479;SDS011;71753;48.772;9.148;2024-03-07T05:01:49;29.10;;;14.73;;
6479;SDS011;71753;48.772;9.148;2024-03-07T05:04:16;29.43;;;14.23;;
6479;SDS011;71753;48.772;9.148;2024-03-07T05:06:43;28.13;;;13.10;;
6479;SDS011;71753;48.772;9.148;2024-03-07T05:09:13;26.13;;;12.57;;
6479;SDS011;71753;48.772;9.148;2024-03-07T05:11:48;32.27;;;13.33;;
6479;SDS011;71753;48.772;9.148;2024-03-07T05:14:18;32.20;;;15.10;;
6479;SDS011;71753;48.772;9.148;2024-03-07T05:16:45;28.30;;;12.83;;
6479;SDS011;71753;48.772;9.148;2024-03-07T05:19:27;26.90;;;13.33;;
6479;SDS011;71753;48.772;9.148;2024-03-07T05:21:54;28.17;;;13.53;;
6479;SDS011;71753;48.772;9.148;2024-03-07T05:24:21;29.97;;;13.90;;
6479;SDS011;71753;48.772;9.148;2024-03-07T05:26:47;26.50;;;13.53;;
6479;SDS011;71753;48.772;9.148;2024-03-07T05:29:14;29.37;;;13.63;;
6479;SDS011;71753;48.772;9.148;2024-03-07T05:31:44;35.90;;;15.27;;
6479;SDS011;71753;48.772;9.148;2024-03-07T05:34:12;32.60;;;14.93;;
6479;SDS011;71753;48.772;9.148;2024-03-07T05:36:40;29.63;;;14.00;;
6479;SDS011;71753;48.772;9.148;2024-03-07T05:39:09;34.73;;;13.87;;
6479;SDS011;71753;48.772;9.148;2024-03-07T05:41:36;31.73;;;14.33;;
6479;SDS011;71753;48.772;9.148;2024-03-07T05:44:03;28.20;;;14.70;;
6479;SDS011;71753;48.772;9.148;2024-03-07T05:46:33;31.87;;;14.73;;
6479;SDS011;71753;48.772;9.148;2024-03-07T05:49:01;31.47;;;14.30;;
6479;SDS011;71753;48.772;9.148;2024-03-07T05:51:29;32.00;;;14.57;;
6479;SDS011;71753;48.772;9.148;2024-03-07T05:53:55;34.03;;;14.40;;
6479;SDS011;71753;48.772;9.148;2024-03-07T05:56:22;31.63;;;14.40;;
6479;SDS011;71753;48.772;9.148;2024-03-07T05:58:49;29.20;;;13.40;;
6479;SDS011;71753;48.772;9.148;2024-03-07T06:01:16;29.30;;;14.40;;
6479;SDS011;71753;48.772;9.148;2024-03-07T06:03:43;28.67;;;14.53;;
6479;SDS011;71753;48.772;9.148;2024-03-07T06:06:11;28.10;;;13.23;;
6479;SDS011;71753;48.772;9.148;2024-03-07T06:08:38;28.83;;;13.23;;
6479;SDS011;71753;48.772;9.148;2024-03-07T06:11:07;35.10;;;14.43;;
6479;SDS011;71753;48.772;9.148;2024-03-07T06:13:34;31.23;;;14.83;;
6479;SDS011;71753;48.772;9.148;2024-03-07T06:16:00;29.43;;;13.60;;
6479;SDS011;71753;48.772;9.148;2024-03-07T06:18:33;29.87;;;13.40;;
6479;SDS011;71753;48.772;9.148;2024-03-07T06:21:00;28.13;;;13.30;;
6479;SDS011;71753;48.772;9.148;2024-03-07T06:23:30;30.57;;;13.83;;
6479;SDS011;71753;48.772;9.148;2024-03-07T06:25:57;28.47;;;13.63;;
6479;SDS011;71753;48.772;9.148;2024-03-07T06:28:25;34.20;;;13.33;;
6479;SDS011;71753;48.772;9.148;2024-03-07T06:30:54;33.80;;;14.00;;
6479;SDS011;71753;48.772;9.148;2024-03-07T06:33:20;31.90;;;13.00;;
6479;SDS011;71753;48.772;9.148;2024-03-07T06:35:47;30.87;;;14.00;;
6479;SDS011;71753;48.772;9.148;2024-03-07T06:38:14;29.93;;;13.73;;
6479;SDS011;71753;48.772;9.148;2024-03-07T06:40:42;27.27;;;13.27;;
6479;SDS011;71753;48.772;9.148;2024-03-07T06:43:09;27.93;;;13.93;;
6479;SDS011;71753;48.772;9.148;2024-03-07T06:45:36;27.63;;;12.43;;
6479;SDS011;71753;48.772;9.148;2024-03-07T06:48:03;23.90;;;12.70;;
6479;SDS011;71753;48.772;9.148;2024-03-07T06:50:32;29.30;;;12.17;;
6479;SDS011;71753;48.772;9.148;2024-03-07T06:52:59;27.20;;;12.10;;
6479;SDS011;71753;48.772;9.148;2024-03-07T06:55:26;26.23;;;12.83;;
6479;SDS011;71753;48.772;9.148;2024-03-07T06:57:54;29.07;;;13.33;;
6479;SDS011;71753;48.772;9.148;2024-03-07T07:00:21;28.20;;;13.23;;
6479;SDS011;71753;48.772;9.148;2024-03-07T07:02:48;27.87;;;13.47;;
6479;SDS011;71753;48.772;9.148;2024-03-07T07:05:15;30.87;;;14.00;;
6479;SDS011;71753;48.772;9.148;2024-03-07T07:07:43;24.07;;;12.53;;
6479;SDS011;71753;48.772;9.148;2024-03-07T07:10:10;28.37;;;12.77;;
6479;SDS011;71753;48.772;9.148;2024-03-07T07:12:41;28.40;;;12.50;;
6479;SDS011;71753;48.772;9.148;2024-03-07T07:15:10;29.37;;;11.73;;
6479;SDS011;71753;48.772;9.148;2024-03-07T07:17:37;26.40;;;11.83;;
6479;SDS011;71753;48.772;9.148;2024-03-07T07:20:04;25.63;;;12.27;;
6479;SDS011;71753;48.772;9.148;2024-03-07T07:22:35;22.70;;;11.23;;
6479;SDS011;71753;48.772;9.148;2024-03-07T07:25:02;22.60;;;11.27;;
6479;SDS011;71753;48.772;9.148;2024-03-07T07:27:30;25.40;;;11.23;;
6479;SDS011;71753;48.772;9.148;2024-03-07T07:29:57;22.20;;;10.83;;
6479;SDS011;71753;48.772;9.148;2024-03-07T07:32:25;24.50;;;11.10;;
6479;SDS011;71753;48.772;9.148;2024-03-07T07:34:53;27.13;;;11.83;;
6479;SDS011;71753;48.772;9.148;2024-03-07T07:37:20;23.60;;;11.70;;
6479;SDS011;71753;48.772;9.148;2024-03-07T07:39:48;22.03;;;10.90;;
6479;SDS011;71753;48.772;9.148;2024-03-07T07:42:15;23.27;;;11.83;;
6479;SDS011;71753;48.772;9.148;2024-03-07T07:44:41;21.43;;;10.13;;
6479;SDS011;71753;48.772;9.148;2024-03-07T07:47:08;23.83;;;11.43;;
6479;SDS011;71753;48.772;9.148;2024-03-07T07:49:37;20.50;;;10.97;;
6479;SDS011;71753;48.772;9.148;2024-03-07T07:52:04;23.40;;;11.23;;
6479;SDS011;71753;48.772;9.148;2024-03-07T07:54:32;22.13;;;11.30;;
6479;SDS011;71753;48.772;9.148;2024-03-07T07:56:59;25.00;;;11.13;;
6479;SDS011;71753;48.772;9.148;2024-03-07T07:59:26;22.60;;;10.87;;
6479;SDS011;71753;48.772;9.148;2024-03-07T08:01:52;24.10;;;11.90;;
6479;SDS011;71753;48.772;9.148;2024-03-07T08:04:20;24.30;;;11.77;;
6479;SDS011;71753;48.772;9.148;2024-03-07T08:06:49;21.27;;;10.50;;
6479;SDS011;71753;48.772;9.148;2024-03-07T08:09:17;22.73;;;12.43;;
6479;SDS011;71753;48.772;9.148;2024-03-07T08:11:43;26.13;;;12.73;;
6479;SDS011;71753;48.772;9.148;2024-03-07T08:14:10;24.03;;;11.13;;
6479;SDS011;71753;48.772;9.148;2024-03-07T08:16:37;24.90;;;11.77;;
6479;SDS011;71753;48.772;9.148;2024-03-07T08:19:04;22.17;;;10.63;;
6479;SDS011;71753;48.772;9.148;2024-03-07T08:21:31;23.93;;;11.27;;
6479;SDS011;71753;48.772;9.148;2024-03-07T08:23:59;24.03;;;12.20;;
6479;SDS011;71753;48.772;9.148;2024-03-07T08:26:28;24.03;;;11.13;;
6479;SDS011;71753;48.772;9.148;2024-03-07T08:28:55;24.93;;;11.63;;
6479;SDS011;71753;48.772;9.148;2024-03-07T08:31:22;23.33;;;11.07;;
6479;SDS011;71753;48.772;9.148;2024-03-07T08:33:49;25.07;;;10.83;;
6479;SDS011;71753;48.772;9.148;2024-03-07T08:36:15;23.90;;;10.63;;
6479;SDS011;71753;48.772;9.148;2024-03-07T08:38:42;21.67;;;11.23;;
6479;SDS011;71753;48.772;9.148;2024-03-07T08:41:12;28.43;;;12.60;;
6479;SDS011;71753;48.772;9.148;2024-03-07T08:43:38;19.13;;;10.07;;
6479;SDS011;71753;48.772;9.148;2024-03-07T08:46:05;23.70;;;10.67;;
6479;SDS011;71753;48.772;9.148;2024-03-07T08:48:32;20.97;;;9.93;;
6479;SDS011;71753;48.772;9.148;2024-03-07T08:50:58;21.70;;;10.63;;
6479;SDS011;71753;48.772;9.148;2024-03-07T08:53:25;23.20;;;10.50;;
6479;SDS011;71753;48.772;9.148;2024-03-07T08:55:52;20.50;;;10.73;;
6479;SDS011;71753;48.772;9.148;2024-03-07T08:58:20;20.10;;;10.20;;
6479;SDS011;71753;48.772;9.148;2024-03-07T09:00:46;21.97;;;10.87;;
6479;SDS011;71753;48.772;9.148;2024-03-07T09:03:14;18.97;;;10.07;;
6479;SDS011;71753;48.772;9.148;2024-03-07T09:05:43;20.03;;;9.60;;
6479;SDS011;71753;48.772;9.148;2024-03-07T09:08:10;20.77;;;9.77;;
6479;SDS011;71753;48.772;9.148;2024-03-07T09:10:37;22.30;;;9.87;;
6479;SDS011;71753;48.772;9.148;2024-03-07T09:13:06;22.90;;;10.07;;
6479;SDS011;71753;48.772;9.148;2024-03-07T09:15:34;18.17;;;9.27;;
6479;SDS011;71753;48.772;9.148;2024-03-07T09:18:02;22.33;;;10.53;;
6479;SDS011;71753;48.772;9.148;2024-03-07T09:20:29;19.10;;;10.03;;
6479;SDS011;71753;48.772;9.148;2024-03-07T09:22:56;19.07;;;9.63;;
6479;SDS011;71753;48.772;9.148;2024-03-07T09:25:25;20.27;;;10.03;;
6479;SDS011;71753;48.772;9.148;2024-03-07T09:27:52;22.37;;;10.33;;
6479;SDS011;71753;48.772;9.148;2024-03-07T09:30:19;22.77;;;10.00;;
6479;SDS011;71753;48.772;9.148;2024-03-07T09:32:51;20.87;;;9.97;;
6479;SDS011;71753;48.772;9.148;2024-03-07T09:35:20;16.80;;;9.43;;
6479;SDS011;71753;48.772;9.148;2024-03-07T09:37:47;20.67;;;10.43;;
6479;SDS011;71753;48.772;9.148;2024-03-07T09:40:14;22.50;;;11.03;;
6479;SDS011;71753;48.772;9.148;2024-03-07T09:42:41;26.57;;;11.67;;
6479;SDS011;71753;48.772;9.148;2024-03-07T09:45:11;21.97;;;10.93;;
6479;SDS011;71753;48.772;9.148;2024-03-07T09:47:41;21.80;;;10.70;;
6479;SDS011;71753;48.772;9.148;2024-03-07T09:50:12;27.07;;;10.93;;
6479;SDS011;71753;48.772;9.148;2024-03-07T09:52:44;21.87;;;9.93;;
6479;SDS011;71753;48.772;9.148;2024-03-07T09:55:15;22.20;;;9.93;;
6479;SDS011;71753;48.772;9.148;2024-03-07T09:57:42;21.23;;;10.83;;
6479;SDS011;71753;48.772;9.148;2024-03-07T10:00:10;22.90;;;10.50;;
6479;SDS011;71753;48.772;9.148;2024-03-07T10:02:48;17.43;;;9.87;;
6479;SDS011;71753;48.772;9.148;2024-03-07T10:05:18;20.40;;;11.00;;
6479;SDS011;71753;48.772;9.148;2024-03-07T10:07:47;21.30;;;11.07;;
6479;SDS011;71753;48.772;9.148;2024-03-07T10:10:14;21.27;;;10.53;;
6479;SDS011;71753;48.772;9.148;2024-03-07T10:12:42;23.20;;;10.77;;
6479;SDS011;71753;48.772;9.148;2024-03-07T10:15:10;21.43;;;10.97;;
6479;SDS011;71753;48.772;9.148;2024-03-07T10:17:38;21.70;;;11.30;;
6479;SDS011;71753;48.772;9.148;2024-03-07T10:20:05;21.03;;;10.30;;
6479;SDS011;71753;48.772;9.148;2024-03-07T10:22:36;19.53;;;10.70;;
6479;SDS011;71753;48.772;9.148;2024-03-07T10:25:03;23.10;;;10.33;;
6479;SDS011;71753;48.772;9.148;2024-03-07T10:27:30;16.90;;;9.30;;
6479;SDS011;71753;48.772;9.148;2024-03-07T10:29:57;21.40;;;10.37;;
6479;SDS011;71753;48.772;9.148;2024-03-07T10:32:24;23.77;;;10.40;;
6479;SDS011;71753;48.772;9.148;2024-03-07T10:34:51;20.53;;;10.90;;
6479;SDS011;71753;48.772;9.148;2024-03-07T10:37:18;23.93;;;10.83;;
6479;SDS011;71753;48.772;9.148;2024-03-07T10:39:47;21.10;;;10.17;;
6479;SDS011;71753;48.772;9.148;2024-03-07T10:42:15;21.83;;;9.60;;
6479;SDS011;71753;48.772;9.148;2024-03-07T10:44:44;20.27;;;10.03;;
6479;SDS011;71753;48.772;9.148;2024-03-07T10:47:14;21.73;;;9.77;;
6479;SDS011;71753;48.772;9.148;2024-03-07T10:49:47;22.57;;;9.90;;
6479;SDS011;71753;48.772;9.148;2024-03-07T10:52:25;19.87;;;10.57;;
6479;SDS011;71753;48.772;9.148;2024-03-07T10:55:10;21.37;;;11.27;;
6479;SDS011;71753;48.772;9.148;2024-03-07T10:57:47;20.80;;;10.53;;
6479;SDS011;71753;48.772;9.148;2024-03-07T11:00:18;18.63;;;10.40;;
6479;SDS011;71753;48.772;9.148;2024-03-07T11:02:55;23.10;;;11.47;;
6479;SDS011;71753;48.772;9.148;2024-03-07T11:05:24;26.00;;;11.60;;
6479;SDS011;71753;48.772;9.148;2024-03-07T11:07:55;24.30;;;11.37;;
6479;SDS011;71753;48.772;9.148;2024-03-07T11:10:25;22.57;;;11.97;;
6479;SDS011;71753;48.772;9.148;2024-03-07T11:12:52;23.50;;;10.53;;
6479;SDS011;71753;48.772;9.148;2024-03-07T11:15:19;24.87;;;11.67;;
6479;SDS011;71753;48.772;9.148;2024-03-07T11:17:51;28.13;;;12.53;;
6479;SDS011;71753;48.772;9.148;2024-03-07T11:20:20;20.53;;;9.70;;
6479;SDS011;71753;48.772;9.148;2024-03-07T11:22:48;20.87;;;10.83;;
6479;SDS011;71753;48.772;9.148;2024-03-07T11:25:17;22.53;;;11.93;;
6479;SDS011;71753;48.772;9.148;2024-03-07T11:27:56;23.87;;;11.27;;
6479;SDS011;71753;48.772;9.148;2024-03-07T11:30:24;26.27;;;11.63;;
6479;SDS011;71753;48.772;9.148;2024-03-07T11:32:52;23.93;;;11.30;;
6479;SDS011;71753;48.772;9.148;2024-03-07T11:35:19;25.20;;;12.13;;
6479;SDS011;71753;48.772;9.148;2024-03-07T11:37:56;24.07;;;11.43;;
6479;SDS011;71753;48.772;9.148;2024-03-07T11:40:42;26.30;;;11.40;;
6479;SDS011;71753;48.772;9.148;2024-03-07T11:43:12;24.73;;;11.33;;
6479;SDS011;71753;48.772;9.148;2024-03-07T11:45:39;24.47;;;12.40;;
6479;SDS011;71753;48.772;9.148;2024-03-07T11:48:10;22.63;;;11.10;;
6479;SDS011;71753;48.772;9.148;2024-03-07T11:50:37;24.40;;;11.27;;
6479;SDS011;71753;48.772;9.148;2024-03-07T11:53:05;23.23;;;11.23;;
6479;SDS011;71753;48.772;9.148;2024-03-07T11:55:33;23.60;;;11.60;;
6479;SDS011;71753;48.772;9.148;2024-03-07T11:58:06;26.10;;;10.97;;
6479;SDS011;71753;48.772;9.148;2024-03-07T12:00:35;23.67;;;11.40;;
6479;SDS011;71753;48.772;9.148;2024-03-07T12:03:02;21.07;;;10.70;;
6479;SDS011;71753;48.772;9.148;2024-03-07T12:05:32;23.53;;;11.17;;
6479;SDS011;71753;48.772;9.148;2024-03-07T12:08:00;31.10;;;11.60;;
6479;SDS011;71753;48.772;9.148;2024-03-07T12:10:30;26.07;;;11.70;;
6479;SDS011;71753;48.772;9.148;2024-03-07T12:12:58;22.03;;;10.00;;
6479;SDS011;71753;48.772;9.148;2024-03-07T12:15:26;21.60;;;10.43;;
6479;SDS011;71753;48.772;9.148;2024-03-07T12:17:54;23.43;;;10.67;;
6479;SDS011;71753;48.772;9.148;2024-03-07T12:20:22;23.40;;;11.50;;
6479;SDS011;71753;48.772;9.148;2024-03-07T12:22:55;24.47;;;11.40;;
6479;SDS011;71753;48.772;9.148;2024-03-07T12:25:23;24.30;;;12.33;;
6479;SDS011;71753;48.772;9.148;2024-03-07T12:27:59;21.07;;;10.80;;
6479;SDS011;71753;48.772;9.148;2024-03-07T12:30:30;25.80;;;11.67;;
6479;SDS011;71753;48.772;9.148;2024-03-07T12:33:00;23.43;;;11.67;;
6479;SDS011;71753;48.772;9.148;2024-03-07T12:35:29;24.23;;;11.33;;
6479;SDS011;71753;48.772;9.148;2024-03-07T12:37:56;22.77;;;10.97;;
6479;SDS011;71753;48.772;9.148;2024-03-07T12:40:24;20.90;;;11.33;;
6479;SDS011;71753;48.772;9.148;2024-03-07T12:42:54;22.03;;;11.37;;
6479;SDS011;71753;48.772;9.148;2024-03-07T12:45:21;22.73;;;12.00;;
6479;SDS011;71753;48.772;9.148;2024-03-07T12:47:48;24.97;;;12.83;;
6479;SDS011;71753;48.772;9.148;2024-03-07T12:50:18;23.90;;;11.47;;
6479;SDS011;71753;48.772;9.148;2024-03-07T12:52:45;25.63;;;12.13;;
6479;SDS011;71753;48.772;9.148;2024-03-07T12:55:14;26.67;;;11.87;;
6479;SDS011;71753;48.772;9.148;2024-03-07T12:57:43;22.40;;;11.33;;
6479;SDS011;71753;48.772;9.148;2024-03-07T13:00:10;26.87;;;12.87;;
6479;SDS011;71753;48.772;9.148;2024-03-07T13:02:44;22.93;;;12.17;;
6479;SDS011;71753;48.772;9.148;2024-03-07T13:05:12;27.83;;;12.47;;
6479;SDS011;71753;48.772;9.148;2024-03-07T13:07:47;24.87;;;12.07;;
6479;SDS011;71753;48.772;9.148;2024-03-07T13:10:15;25.27;;;12.93;;
6479;SDS011;71753;48.772;9.148;2024-03-07T13:12:43;26.03;;;12.60;;
6479;SDS011;71753;48.772;9.148;2024-03-07T13:15:11;24.77;;;12.40;;
6479;SDS011;71753;48.772;9.148;2024-03-07T13:17:38;24.50;;;12.13;;
6479;SDS011;71753;48.772;9.148;2024-03-07T13:20:08;27.13;;;12.27;;
6479;SDS011;71753;48.772;9.148;2024-03-07T13:22:38;23.73;;;11.57;;
6479;SDS011;71753;48.772;9.148;2024-03-07T13:25:09;24.27;;;12.30;;
6479;SDS011;71753;48.772;9.148;2024-03-07T13:27:42;26.00;;;12.23;;
6479;SDS011;71753;48.772;9.148;2024-03-07T13:30:11;22.17;;;11.03;;
6479;SDS011;71753;48.772;9.148;2024-03-07T13:32:49;28.83;;;11.47;;
6479;SDS011;71753;48.772;9.148;2024-03-07T13:35:18;24.87;;;11.83;;
6479;SDS011;71753;48.772;9.148;2024-03-07T13:37:46;20.93;;;11.60;;
6479;SDS011;71753;48.772;9.148;2024-03-07T13:40:15;23.90;;;11.70;;
6479;SDS011;71753;48.772;9.148;2024-03-07T13:42:51;24.67;;;12.83;;
6479;SDS011;71753;48.772;9.148;2024-03-07T13:45:20;21.07;;;10.77;;
6479;SDS011;71753;48.772;9.148;2024-03-07T13:47:47;23.33;;;10.73;;
6479;SDS011;71753;48.772;9.148;2024-03-07T13:50:15;23.23;;;11.90;;
6479;SDS011;71753;48.772;9.148;2024-03-07T13:52:44;22.27;;;11.67;;
6479;SDS011;71753;48.772;9.148;2024-03-07T13:55:31;22.20;;;11.83;;
6479;SDS011;71753;48.772;9.148;2024-03-07T13:58:02;22.30;;;11.40;;
6479;SDS011;71753;48.772;9.148;2024-03-07T14:00:36;24.10;;;12.63;;
6479;SDS011;71753;48.772;9.148;2024-03-07T14:03:14;23.83;;;11.03;;
6479;SDS011;71753;48.772;9.148;2024-03-07T14:06:03;22.40;;;11.97;;
6479;SDS011;71753;48.772;9.148;2024-03-07T14:24:33;24.90;;;13.10;;
6479;SDS011;71753;48.772;9.148;2024-03-07T14:27:18;24.87;;;11.90;;
6479;SDS011;71753;48.772;9.148;2024-03-07T14:29:54;24.57;;;12.83;;
6479;SDS011;71753;48.772;9.148;2024-03-07T14:32:35;24.13;;;12.47;;
6479;SDS011;71753;48.772;9.148;2024-03-07T14:35:07;27.13;;;11.90;;
6479;SDS011;71753;48.772;9.148;2024-03-07T14:37:45;24.90;;;13.60;;
6479;SDS011;71753;48.772;9.148;2024-03-07T14:40:16;24.17;;;12.40;;
6479;SDS011;71753;48.772;9.148;2024-03-07T14:42:46;26.00;;;12.83;;
6479;SDS011;71753;48.772;9.148;2024-03-07T14:45:15;26.00;;;12.40;;
6479;SDS011;71753;48.772;9.148;2024-03-07T14:47:46;26.13;;;12.50;;
6479;SDS011;71753;48.772;9.148;2024-03-07T14:50:16;29.13;;;12.93;;
6479;SDS011;71753;48.772;9.148;2024-03-07T14:52:45;28.00;;;13.40;;
6479;SDS011;71753;48.772;9.148;2024-03-07T14:55:12;24.40;;;12.33;;
6479;SDS011;71753;48.772;9.148;2024-03-07T14:57:44;24.20;;;12.13;;
6479;SDS011;71753;48.772;9.148;2024-03-07T15:00:12;23.43;;;12.03;;